createdAt,value
2024-03-12T00:01:28.612Z,30.56
2024-03-12T00:04:00.417Z,30.60
2024-03-12T00:06:33.061Z,30.61
2024-03-12T00:09:08.674Z,30.68
2024-03-12T00:11:39.666Z,30.70
2024-03-12T00:14:10.211Z,30.68
2024-03-12T00:16:42.775Z,30.72
2024-03-12T00:19:13.221Z,30.69
2024-03-12T00:21:45.038Z,30.70
2024-03-12T00:24:15.181Z,30.60
2024-03-12T00:26:48.821Z,30.66
2024-03-12T00:29:21.439Z,30.69
2024-03-12T00:31:53.505Z,30.75
2024-03-12T00:34:23.625Z,30.62
2024-03-12T00:36:54.735Z,30.75
2024-03-12T00:39:25.350Z,30.77
2024-03-12T00:41:58.652Z,30.75
2024-03-12T00:44:29.478Z,30.84
2024-03-12T00:46:59.796Z,30.88
2024-03-12T00:49:33.097Z,30.87
2024-03-12T00:52:05.988Z,30.97
2024-03-12T00:54:38.398Z,30.97
2024-03-12T00:57:09.115Z,31.00
2024-03-12T00:59:39.821Z,31.03
2024-03-12T01:02:14.811Z,31.05
2024-03-12T01:04:45.435Z,31.06
2024-03-12T01:07:15.965Z,31.09
2024-03-12T01:09:47.084Z,31.11
2024-03-12T01:12:17.958Z,31.14
2024-03-12T01:14:49.672Z,31.16
2024-03-12T01:17:22.959Z,31.17
2024-03-12T01:19:53.644Z,31.18
2024-03-12T01:22:27.164Z,31.21
2024-03-12T01:24:57.777Z,31.21
2024-03-12T01:27:29.103Z,31.25
2024-03-12T01:29:59.571Z,31.30
2024-03-12T01:32:29.791Z,31.30
2024-03-12T01:35:00.524Z,31.33
2024-03-12T01:37:32.122Z,31.35
2024-03-12T01:40:02.889Z,31.36
2024-03-12T01:42:34.130Z,31.38
2024-03-12T01:45:07.989Z,31.43
2024-03-12T01:47:38.562Z,31.46
2024-03-12T01:50:09.521Z,31.45
2024-03-12T01:52:39.976Z,31.50
2024-03-12T01:55:10.937Z,31.52
2024-03-12T01:57:47.688Z,31.54
2024-03-12T02:00:20.062Z,31.56
2024-03-12T02:02:54.563Z,31.60
2024-03-12T02:05:25.034Z,31.61
2024-03-12T02:07:56.099Z,31.65
2024-03-12T02:10:29.659Z,31.65
2024-03-12T02:13:00.526Z,31.69
2024-03-12T02:15:31.092Z,31.73
2024-03-12T02:18:01.856Z,31.76
2024-03-12T02:20:32.331Z,31.77
2024-03-12T02:23:06.214Z,31.81
2024-03-12T02:25:37.002Z,31.81
2024-03-12T02:28:08.543Z,31.87
2024-03-12T02:30:39.286Z,31.90
2024-03-12T02:33:10.716Z,31.93
2024-03-12T02:35:41.715Z,31.96
2024-03-12T02:38:12.065Z,31.98
2024-03-12T02:40:42.878Z,32.00
2024-03-12T02:43:15.924Z,32.05
2024-03-12T02:45:50.526Z,32.05
2024-03-12T02:48:21.301Z,32.13
2024-03-12T02:50:51.814Z,32.15
2024-03-12T02:53:28.603Z,32.21
2024-03-12T02:55:59.164Z,32.22
2024-03-12T02:58:30.192Z,32.28
2024-03-12T03:01:00.925Z,32.30
2024-03-12T03:03:31.366Z,32.35
2024-03-12T03:06:02.693Z,32.38
2024-03-12T03:08:33.465Z,32.41
2024-03-12T03:11:04.173Z,32.43
2024-03-12T03:13:37.948Z,32.48
2024-03-12T03:16:08.689Z,32.50
2024-03-12T03:18:39.617Z,32.54
2024-03-12T03:21:11.664Z,32.56
2024-03-12T03:23:44.731Z,32.58
2024-03-12T03:26:15.580Z,32.62
2024-03-12T03:28:46.251Z,32.64
2024-03-12T03:31:17.384Z,32.64
2024-03-12T03:33:49.682Z,32.69
2024-03-12T03:36:20.356Z,32.73
2024-03-12T03:38:50.728Z,32.75
2024-03-12T03:41:22.172Z,32.77
2024-03-12T03:43:53.840Z,32.82
2024-03-12T03:46:26.112Z,32.79
2024-03-12T03:48:58.038Z,32.85
2024-03-12T03:51:29.174Z,32.87
2024-03-12T03:54:03.253Z,32.89
2024-03-12T03:56:34.121Z,32.91
2024-03-12T03:59:06.164Z,32.89
2024-03-12T04:01:37.249Z,32.93
2024-03-12T04:04:14.996Z,32.99
2024-03-12T04:06:46.591Z,33.03
2024-03-12T04:09:17.849Z,33.04
2024-03-12T04:11:51.167Z,33.08
2024-03-12T04:14:22.022Z,33.11
2024-03-12T04:16:52.668Z,33.15
2024-03-12T04:19:23.170Z,33.18
2024-03-12T04:21:53.951Z,33.19
2024-03-12T04:24:24.811Z,33.20
2024-03-12T04:26:55.903Z,33.21
2024-03-12T04:29:26.592Z,33.27
2024-03-12T04:31:57.407Z,33.30
2024-03-12T04:34:27.963Z,33.32
2024-03-12T04:37:00.922Z,33.32
2024-03-12T04:39:34.605Z,33.38
2024-03-12T04:42:09.724Z,33.41
2024-03-12T04:44:40.823Z,33.41
2024-03-12T04:47:12.091Z,33.42
2024-03-12T04:49:43.434Z,33.45
2024-03-12T04:52:14.284Z,33.49
2024-03-12T04:54:45.500Z,33.53
2024-03-12T04:57:16.312Z,33.53
2024-03-12T04:59:47.049Z,33.58
2024-03-12T05:02:18.027Z,33.61
2024-03-12T05:04:48.920Z,33.63
2024-03-12T05:07:20.107Z,33.65
2024-03-12T05:09:51.037Z,33.68
2024-03-12T05:12:22.006Z,33.72
2024-03-12T05:14:53.247Z,33.74
2024-03-12T05:17:24.355Z,33.76
2024-03-12T05:19:55.768Z,33.81
2024-03-12T05:22:26.640Z,33.85
2024-03-12T05:24:57.208Z,33.87
2024-03-12T05:27:35.701Z,33.83
2024-03-12T05:30:13.531Z,33.88
2024-03-12T05:32:50.693Z,33.92
2024-03-12T05:35:25.021Z,33.97
2024-03-12T05:38:06.571Z,34.01
2024-03-12T05:40:59.291Z,34.02
2024-03-12T05:43:50.321Z,34.05
2024-03-12T05:46:49.516Z,34.05
2024-03-12T05:49:22.826Z,34.14
2024-03-12T05:51:55.486Z,34.00
2024-03-12T05:54:26.441Z,34.16
2024-03-12T05:56:57.277Z,34.06
2024-03-12T05:59:28.569Z,34.23
2024-03-12T06:02:00.607Z,34.25
2024-03-12T06:04:34.632Z,34.26
2024-03-12T06:07:05.438Z,34.31
2024-03-12T06:09:36.399Z,34.33
2024-03-12T06:12:09.091Z,34.36
2024-03-12T06:14:40.021Z,34.40
2024-03-12T06:17:10.952Z,34.44
2024-03-12T06:19:42.472Z,34.46
2024-03-12T06:22:13.454Z,34.46
2024-03-12T06:24:44.722Z,34.50
2024-03-12T06:27:15.507Z,34.43
2024-03-12T06:29:53.886Z,34.55
2024-03-12T06:32:27.399Z,34.58
2024-03-12T06:35:00.229Z,34.62
2024-03-12T06:37:30.847Z,34.64
2024-03-12T06:40:02.652Z,34.65
2024-03-12T06:42:33.930Z,34.67
2024-03-12T06:45:05.766Z,34.67
2024-03-12T06:47:43.573Z,34.70
2024-03-12T06:50:14.686Z,34.75
2024-03-12T06:52:49.515Z,34.78
2024-03-12T06:55:26.039Z,34.81
2024-03-12T06:58:02.368Z,34.85
2024-03-12T07:00:40.176Z,34.85
2024-03-12T07:03:11.738Z,34.89
2024-03-12T07:05:48.070Z,34.80
2024-03-12T07:08:19.690Z,34.90
2024-03-12T07:10:52.874Z,34.88
2024-03-12T07:13:25.719Z,35.03
2024-03-12T07:15:56.603Z,35.06
2024-03-12T07:18:27.190Z,35.07
2024-03-12T07:20:58.746Z,35.09
2024-03-12T07:23:28.939Z,35.02
2024-03-12T07:26:00.849Z,35.14
2024-03-12T07:28:31.460Z,35.21
2024-03-12T07:31:02.037Z,35.22
2024-03-12T07:33:32.713Z,35.26
2024-03-12T07:36:06.390Z,35.28
2024-03-12T07:38:37.061Z,35.32
2024-03-12T07:41:11.363Z,35.35
2024-03-12T07:43:41.996Z,35.41
2024-03-12T07:46:14.193Z,35.44
2024-03-12T07:48:46.270Z,35.49
2024-03-12T07:51:17.171Z,35.52
2024-03-12T07:53:48.397Z,35.40
2024-03-12T07:56:20.895Z,35.54
2024-03-12T07:58:51.462Z,35.63
2024-03-12T08:01:22.864Z,35.70
2024-03-12T08:03:53.868Z,35.75
2024-03-12T08:06:25.515Z,35.79
2024-03-12T08:08:55.766Z,35.73
2024-03-12T08:11:26.729Z,35.86
2024-03-12T08:13:57.397Z,35.94
2024-03-12T08:16:28.404Z,35.96
2024-03-12T08:19:00.881Z,36.04
2024-03-12T08:21:31.643Z,36.08
2024-03-12T08:24:02.245Z,36.11
2024-03-12T08:26:35.769Z,36.17
2024-03-12T08:29:07.089Z,36.19
2024-03-12T08:31:47.472Z,36.23
2024-03-12T08:34:23.426Z,36.33
2024-03-12T08:36:54.297Z,36.36
2024-03-12T08:39:25.093Z,36.43
2024-03-12T08:41:56.975Z,36.46
2024-03-12T08:44:28.996Z,36.51
2024-03-12T08:47:00.617Z,36.58
2024-03-12T08:49:31.630Z,36.63
2024-03-12T08:52:02.322Z,36.68
2024-03-12T08:54:36.170Z,36.73
2024-03-12T08:57:07.359Z,36.73
2024-03-12T08:59:38.136Z,36.82
2024-03-12T09:02:09.134Z,36.81
2024-03-12T09:04:40.951Z,36.92
2024-03-12T09:07:11.804Z,36.94
2024-03-12T09:09:42.394Z,36.95
2024-03-12T09:12:13.549Z,37.04
2024-03-12T09:14:44.192Z,37.02
2024-03-12T09:17:15.021Z,37.10
2024-03-12T09:19:45.901Z,37.07
2024-03-12T09:22:16.574Z,37.09
2024-03-12T09:24:47.051Z,37.01
2024-03-12T09:27:17.748Z,37.13
2024-03-12T09:29:48.518Z,37.03
2024-03-12T09:32:19.530Z,37.06
2024-03-12T09:34:50.253Z,37.06
2024-03-12T09:37:21.694Z,37.12
2024-03-12T09:39:54.862Z,37.09
2024-03-12T09:42:29.032Z,36.81
2024-03-12T09:45:00.624Z,37.14
2024-03-12T09:47:31.276Z,37.03
2024-03-12T09:50:05.718Z,37.18
2024-03-12T09:52:37.719Z,37.21
2024-03-12T09:55:15.563Z,37.15
2024-03-12T09:57:49.373Z,37.13
2024-03-12T10:00:27.137Z,37.15
2024-03-12T10:02:58.117Z,37.19
2024-03-12T10:05:30.206Z,37.20
2024-03-12T10:08:17.458Z,37.17
2024-03-12T10:10:55.059Z,37.07
2024-03-12T10:13:26.182Z,37.18
2024-03-12T10:16:05.633Z,37.07
2024-03-12T10:18:37.202Z,37.11
2024-03-12T10:21:09.199Z,37.11
2024-03-12T10:23:40.397Z,37.13
2024-03-12T10:26:13.877Z,37.02
2024-03-12T10:28:49.003Z,37.10
2024-03-12T10:31:22.301Z,37.07
2024-03-12T10:33:53.229Z,37.06
2024-03-12T10:36:35.045Z,37.00
2024-03-12T10:39:14.608Z,36.98
2024-03-12T10:41:50.978Z,36.86
2024-03-12T10:44:21.664Z,36.85
2024-03-12T10:46:52.526Z,36.85
2024-03-12T10:49:27.800Z,36.80
2024-03-12T10:52:00.415Z,36.82
2024-03-12T10:54:37.821Z,36.73
2024-03-12T10:57:10.393Z,36.57
2024-03-12T10:59:42.572Z,36.71
2024-03-12T11:02:15.103Z,36.67
2024-03-12T11:04:50.702Z,36.33
2024-03-12T11:07:21.441Z,36.61
2024-03-12T11:09:53.845Z,36.55
2024-03-12T11:12:27.431Z,36.33
2024-03-12T11:14:58.356Z,36.51
2024-03-12T11:17:31.182Z,36.50
2024-03-12T11:20:03.726Z,36.46
2024-03-12T11:22:38.123Z,36.40
2024-03-12T11:25:11.372Z,36.39
2024-03-12T11:27:43.488Z,36.39
2024-03-12T11:30:16.789Z,36.39
2024-03-12T11:32:52.903Z,36.34
2024-03-12T11:35:23.842Z,36.32
2024-03-12T11:38:02.841Z,36.26
2024-03-12T11:40:34.833Z,36.24
2024-03-12T11:43:06.120Z,36.22
2024-03-12T11:45:50.747Z,36.17
2024-03-12T11:48:34.821Z,36.15
2024-03-12T11:51:13.844Z,36.15
2024-03-12T11:53:49.697Z,36.10
2024-03-12T11:56:25.843Z,36.01
2024-03-12T11:59:03.137Z,36.02
2024-03-12T12:01:38.428Z,36.00
2024-03-12T12:04:12.195Z,35.98
2024-03-12T12:06:46.440Z,35.95
2024-03-12T12:09:17.178Z,35.92
2024-03-12T12:11:50.457Z,35.89
2024-03-12T12:14:24.621Z,35.86
2024-03-12T12:17:05.251Z,35.83
2024-03-12T12:19:42.291Z,35.81
2024-03-12T12:22:15.614Z,35.80
2024-03-12T12:24:47.852Z,35.75
2024-03-12T12:27:19.709Z,35.62
2024-03-12T12:29:50.548Z,35.70
2024-03-12T12:32:22.925Z,35.68
2024-03-12T12:34:57.185Z,35.64
2024-03-12T12:37:28.233Z,35.62
2024-03-12T12:40:00.953Z,35.52
2024-03-12T12:42:36.023Z,35.55
2024-03-12T12:45:16.532Z,35.52
2024-03-12T12:47:53.370Z,35.49
2024-03-12T12:50:28.921Z,35.46
2024-03-12T12:53:03.824Z,35.44
2024-03-12T12:55:41.533Z,35.39
2024-03-12T12:58:14.800Z,35.38
2024-03-12T13:01:02.000Z,35.35
2024-03-12T13:03:40.320Z,35.30
2024-03-12T13:06:27.862Z,35.23
2024-03-12T13:08:59.170Z,35.24
2024-03-12T13:11:33.902Z,35.22
2024-03-12T13:14:10.485Z,35.19
2024-03-12T13:16:45.269Z,35.13
2024-03-12T13:19:22.536Z,35.13
2024-03-12T13:21:55.558Z,35.10
2024-03-12T13:24:26.845Z,35.07
2024-03-12T13:27:00.917Z,35.05
2024-03-12T13:29:34.799Z,35.04
2024-03-12T13:32:05.787Z,34.99
2024-03-12T13:34:38.167Z,34.96
2024-03-12T13:37:09.604Z,34.94
2024-03-12T13:39:40.267Z,34.80
2024-03-12T13:42:12.631Z,34.88
2024-03-12T13:44:44.435Z,34.81
2024-03-12T13:47:15.174Z,34.84
2024-03-12T13:49:45.928Z,34.80
2024-03-12T13:52:17.074Z,34.74
2024-03-12T13:54:47.882Z,34.74
2024-03-12T13:57:19.228Z,34.72
2024-03-12T13:59:51.124Z,34.70
2024-03-12T14:02:25.358Z,34.53
2024-03-12T14:04:56.413Z,34.46
2024-03-12T14:07:27.298Z,34.30
2024-03-12T14:09:59.542Z,34.15
2024-03-12T14:12:31.054Z,34.14
2024-03-12T14:15:01.865Z,34.06
2024-03-12T14:17:33.185Z,33.92
2024-03-12T14:20:08.319Z,33.88
2024-03-12T14:22:41.667Z,33.76
2024-03-12T14:25:13.920Z,33.70
2024-03-12T14:27:45.669Z,33.62
2024-03-12T14:30:17.134Z,33.54
2024-03-12T14:32:51.333Z,33.47
2024-03-12T14:35:24.637Z,33.43
2024-03-12T14:37:58.209Z,33.35
2024-03-12T14:40:29.820Z,33.29
2024-03-12T14:43:03.073Z,33.22
2024-03-12T14:45:35.212Z,33.19
2024-03-12T14:48:07.132Z,33.13
2024-03-12T14:50:40.755Z,33.05
2024-03-12T14:53:12.998Z,33.01
2024-03-12T14:55:46.152Z,32.97
2024-03-12T14:58:17.935Z,32.91
2024-03-12T15:00:49.173Z,32.79
2024-03-12T15:03:21.136Z,32.81
2024-03-12T15:05:56.810Z,32.77
2024-03-12T15:08:27.708Z,32.47
2024-03-12T15:11:01.113Z,32.57
2024-03-12T15:13:32.940Z,32.63
2024-03-12T15:16:03.991Z,32.57
2024-03-12T15:18:36.689Z,32.53
2024-03-12T15:21:08.086Z,32.45
2024-03-12T15:23:39.090Z,32.46
2024-03-12T15:26:13.636Z,32.41
2024-03-12T15:28:45.317Z,32.34
2024-03-12T15:31:18.591Z,32.35
2024-03-12T15:33:49.593Z,32.33
2024-03-12T15:36:23.204Z,32.34
2024-03-12T15:38:54.469Z,32.32
2024-03-12T15:41:28.449Z,32.33
2024-03-12T15:43:59.347Z,32.30
2024-03-12T15:46:32.245Z,32.26
2024-03-12T15:49:04.299Z,32.23
2024-03-12T15:51:35.961Z,32.19
2024-03-12T15:54:07.068Z,32.15
2024-03-12T15:56:39.118Z,32.14
2024-03-12T15:59:10.812Z,32.10
2024-03-12T16:01:43.280Z,32.09
2024-03-12T16:04:20.389Z,32.00
2024-03-12T16:06:51.306Z,32.00
2024-03-12T16:09:23.252Z,31.95
2024-03-12T16:11:54.657Z,31.87
2024-03-12T16:14:26.052Z,31.91
2024-03-12T16:16:57.121Z,31.84
2024-03-12T16:19:32.106Z,31.85
2024-03-12T16:22:03.390Z,31.82
2024-03-12T16:24:34.659Z,31.77
2024-03-12T16:27:06.878Z,31.70
2024-03-12T16:29:37.987Z,31.70
2024-03-12T16:32:13.113Z,31.66
2024-03-12T16:34:45.570Z,31.61
2024-03-12T16:37:17.116Z,31.60
2024-03-12T16:39:49.054Z,31.59
2024-03-12T16:42:21.018Z,31.53
2024-03-12T16:44:55.055Z,31.55
2024-03-12T16:47:29.866Z,31.53
2024-03-12T16:50:07.856Z,31.52
2024-03-12T16:52:41.609Z,31.46
2024-03-12T16:55:13.540Z,31.44
2024-03-12T16:57:44.905Z,31.38
2024-03-12T17:00:17.973Z,31.42
2024-03-12T17:02:49.501Z,31.35
2024-03-12T17:05:27.398Z,31.35
2024-03-12T17:08:01.094Z,31.33
2024-03-12T17:10:35.185Z,31.27
2024-03-12T17:13:07.789Z,31.28
2024-03-12T17:15:42.412Z,31.23
2024-03-12T17:18:15.508Z,31.21
2024-03-12T17:20:46.556Z,31.20
2024-03-12T17:23:17.668Z,31.15
2024-03-12T17:25:48.636Z,31.15
2024-03-12T17:28:19.555Z,31.12
2024-03-12T17:30:52.211Z,31.10
2024-03-12T17:33:24.030Z,31.09
2024-03-12T17:35:55.885Z,31.07
2024-03-12T17:38:32.646Z,30.71
2024-03-12T17:41:04.697Z,31.03
2024-03-12T17:43:38.792Z,30.96
2024-03-12T17:46:17.390Z,30.98
2024-03-12T17:48:48.964Z,30.97
2024-03-12T17:51:20.325Z,30.94
2024-03-12T17:53:52.576Z,30.87
2024-03-12T17:56:30.693Z,30.89
2024-03-12T17:59:03.059Z,30.87
2024-03-12T18:01:35.096Z,30.85
2024-03-12T18:04:07.767Z,30.81
2024-03-12T18:06:45.379Z,30.79
2024-03-12T18:09:26.800Z,30.74
2024-03-12T18:11:57.775Z,30.71
2024-03-12T18:14:31.437Z,30.71
2024-03-12T18:17:07.065Z,30.71
2024-03-12T18:19:39.012Z,30.73
2024-03-12T18:22:10.486Z,30.70
2024-03-12T18:24:41.688Z,30.65
2024-03-12T18:27:12.600Z,30.65
2024-03-12T18:29:46.148Z,30.62
2024-03-12T18:32:18.201Z,30.60
2024-03-12T18:34:49.788Z,30.61
2024-03-12T18:37:20.628Z,30.59
2024-03-12T18:39:51.951Z,30.57
2024-03-12T18:42:22.907Z,30.54
2024-03-12T18:44:56.119Z,30.51
2024-03-12T18:47:27.098Z,30.49
2024-03-12T18:49:58.794Z,30.46
2024-03-12T18:52:29.870Z,30.47
2024-03-12T18:55:01.590Z,30.44
2024-03-12T18:57:32.677Z,30.42
2024-03-12T19:00:09.386Z,30.41
2024-03-12T19:02:41.845Z,30.40
2024-03-12T19:05:14.620Z,30.36
2024-03-12T19:07:47.198Z,30.37
2024-03-12T19:10:19.075Z,30.33
2024-03-12T19:12:50.266Z,30.33
2024-03-12T19:15:25.324Z,30.31
2024-03-12T19:17:57.651Z,30.29
2024-03-12T19:20:29.425Z,30.26
2024-03-12T19:23:01.486Z,30.26
2024-03-12T19:25:31.865Z,30.19
2024-03-12T19:28:05.401Z,30.17
2024-03-12T19:30:37.147Z,30.21
2024-03-12T19:33:08.918Z,30.19
2024-03-12T19:35:41.259Z,30.18
2024-03-12T19:38:12.321Z,30.16
2024-03-12T19:40:43.503Z,30.12
2024-03-12T19:43:14.541Z,30.14
2024-03-12T19:45:45.760Z,30.07
2024-03-12T19:48:19.651Z,30.13
2024-03-12T19:50:52.588Z,30.12
2024-03-12T19:53:23.205Z,30.08
2024-03-12T19:55:56.632Z,30.06
2024-03-12T19:58:28.137Z,30.03
2024-03-12T20:00:59.183Z,30.05
2024-03-12T20:03:30.189Z,30.05
2024-03-12T20:06:01.785Z,30.03
2024-03-12T20:08:32.840Z,29.99
2024-03-12T20:11:03.720Z,30.00
2024-03-12T20:13:37.719Z,29.98
2024-03-12T20:16:11.865Z,29.98
2024-03-12T20:18:46.098Z,29.96
2024-03-12T20:21:19.894Z,29.96
2024-03-12T20:23:53.502Z,29.88
2024-03-12T20:26:24.221Z,29.92
2024-03-12T20:28:57.978Z,29.90
2024-03-12T20:31:29.021Z,29.90
2024-03-12T20:34:00.114Z,29.82
2024-03-12T20:36:30.909Z,29.86
2024-03-12T20:39:01.646Z,29.85
2024-03-12T20:41:32.724Z,29.84
2024-03-12T20:44:04.089Z,29.82
2024-03-12T20:46:34.875Z,29.80
2024-03-12T20:49:05.671Z,29.75
2024-03-12T20:51:36.686Z,29.76
2024-03-12T20:54:07.389Z,29.73
2024-03-12T20:56:38.083Z,29.74
2024-03-12T20:59:09.791Z,29.75
2024-03-12T21:01:43.717Z,29.72
2024-03-12T21:04:14.773Z,29.70
2024-03-12T21:06:49.988Z,29.70
2024-03-12T21:09:28.516Z,29.59
2024-03-12T21:12:00.107Z,29.63
2024-03-12T21:14:32.158Z,29.59
2024-03-12T21:17:05.736Z,29.59
2024-03-12T21:19:36.327Z,29.65
2024-03-12T21:22:10.669Z,29.64
2024-03-12T21:24:41.675Z,29.58
2024-03-12T21:27:12.268Z,29.60
2024-03-12T21:29:42.853Z,29.58
2024-03-12T21:32:15.175Z,29.57
2024-03-12T21:34:46.237Z,29.56
2024-03-12T21:37:16.941Z,29.54
2024-03-12T21:39:49.156Z,29.54
2024-03-12T21:42:21.497Z,29.47
2024-03-12T21:44:54.995Z,29.54
2024-03-12T21:47:26.683Z,29.50
2024-03-12T21:49:58.062Z,29.50
2024-03-12T21:52:29.938Z,29.53
2024-03-12T21:55:00.933Z,29.50
2024-03-12T21:57:31.690Z,29.50
2024-03-12T22:00:02.399Z,29.48
2024-03-12T22:02:43.792Z,29.46
2024-03-12T22:05:17.394Z,29.43
2024-03-12T22:07:51.633Z,29.45
2024-03-12T22:10:23.176Z,29.44
2024-03-12T22:12:54.632Z,29.42
2024-03-12T22:15:27.005Z,29.42
2024-03-12T22:17:58.636Z,29.41
2024-03-12T22:20:29.427Z,29.39
2024-03-12T22:23:00.523Z,29.37
2024-03-12T22:25:31.982Z,29.37
2024-03-12T22:28:03.016Z,29.35
2024-03-12T22:30:33.773Z,29.33
2024-03-12T22:33:05.826Z,29.28
2024-03-12T22:35:36.703Z,29.31
2024-03-12T22:38:08.289Z,29.32
2024-03-12T22:40:39.736Z,29.29
2024-03-12T22:43:11.235Z,29.26
2024-03-12T22:45:42.045Z,29.27
2024-03-12T22:48:13.266Z,29.27
2024-03-12T22:50:44.983Z,29.19
2024-03-12T22:53:18.294Z,29.23
2024-03-12T22:55:49.160Z,29.24
2024-03-12T22:58:20.353Z,29.10
2024-03-12T23:00:53.459Z,29.20
2024-03-12T23:03:26.596Z,29.15
2024-03-12T23:05:58.179Z,29.15
2024-03-12T23:08:32.341Z,29.25
2024-03-12T23:11:03.056Z,29.25
2024-03-12T23:13:34.143Z,29.34
2024-03-12T23:16:05.021Z,29.37
2024-03-12T23:18:38.640Z,29.40
2024-03-12T23:21:09.363Z,29.45
2024-03-12T23:23:40.652Z,29.49
2024-03-12T23:26:13.557Z,29.52
2024-03-12T23:28:46.222Z,29.57
2024-03-12T23:31:17.247Z,29.65
2024-03-12T23:33:48.265Z,29.70
2024-03-12T23:36:23.885Z,29.75
2024-03-12T23:38:54.610Z,29.78
2024-03-12T23:41:26.397Z,29.83
2024-03-12T23:43:57.382Z,29.78
2024-03-12T23:46:28.091Z,29.92
2024-03-12T23:48:58.878Z,29.99
2024-03-12T23:51:31.066Z,30.01
2024-03-12T23:54:02.912Z,30.03
2024-03-12T23:56:33.358Z,29.98
2024-03-12T23:59:06.469Z,30.13
